sensor_id;sensor_type;location;lat;lon;timestamp;temperature;humidity
16829;DHT22;8531;48.078;11.968;2023-02-22T00:00:28;6.90;99.90
16829;DHT22;8531;48.078;11.968;2023-02-22T00:03:37;6.90;99.90
16829;DHT22;8531;48.078;11.968;2023-02-22T00:06:04;6.80;99.90
16829;DHT22;8531;48.078;11.968;2023-02-22T00:08:32;6.90;99.90
16829;DHT22;8531;48.078;11.968;2023-02-22T00:11:00;6.90;99.90
16829;DHT22;8531;48.078;11.968;2023-02-22T00:13:36;6.80;99.90
16829;DHT22;8531;48.078;11.968;2023-02-22T00:16:02;6.80;99.90
16829;DHT22;8531;48.078;11.968;2023-02-22T00:18:28;6.60;99.90
16829;DHT22;8531;48.078;11.968;2023-02-22T00:20:58;6.60;99.90
16829;DHT22;8531;48.078;11.968;2023-02-22T00:23:26;6.60;99.90
16829;DHT22;8531;48.078;11.968;2023-02-22T00:25:53;6.70;99.90
16829;DHT22;8531;48.078;11.968;2023-02-22T00:28:19;6.70;99.90
16829;DHT22;8531;48.078;11.968;2023-02-22T00:30:45;6.70;99.90
16829;DHT22;8531;48.078;11.968;2023-02-22T00:33:13;6.80;99.90
16829;DHT22;8531;48.078;11.968;2023-02-22T00:35:39;6.70;99.90
16829;DHT22;8531;48.078;11.968;2023-02-22T00:38:06;6.60;99.90
16829;DHT22;8531;48.078;11.968;2023-02-22T00:40:33;6.70;99.90
16829;DHT22;8531;48.078;11.968;2023-02-22T00:43:03;6.70;99.90
16829;DHT22;8531;48.078;11.968;2023-02-22T00:45:30;6.60;99.90
16829;DHT22;8531;48.078;11.968;2023-02-22T00:47:57;6.60;99.90
16829;DHT22;8531;48.078;11.968;2023-02-22T00:50:25;6.60;99.90
16829;DHT22;8531;48.078;11.968;2023-02-22T00:52:51;6.60;99.90
16829;DHT22;8531;48.078;11.968;2023-02-22T00:55:20;6.60;99.90
16829;DHT22;8531;48.078;11.968;2023-02-22T00:57:46;6.60;99.90
16829;DHT22;8531;48.078;11.968;2023-02-22T01:00:24;6.60;99.90
16829;DHT22;8531;48.078;11.968;2023-02-22T01:02:51;6.50;99.90
16829;DHT22;8531;48.078;11.968;2023-02-22T01:05:19;6.30;99.90
16829;DHT22;8531;48.078;11.968;2023-02-22T01:07:46;6.20;99.90
16829;DHT22;8531;48.078;11.968;2023-02-22T01:10:12;6.10;99.90
16829;DHT22;8531;48.078;11.968;2023-02-22T01:12:39;6.00;99.90
16829;DHT22;8531;48.078;11.968;2023-02-22T01:15:06;5.90;99.90
16829;DHT22;8531;48.078;11.968;2023-02-22T01:17:35;5.80;99.90
16829;DHT22;8531;48.078;11.968;2023-02-22T01:20:02;5.70;99.90
16829;DHT22;8531;48.078;11.968;2023-02-22T01:22:31;5.60;99.90
16829;DHT22;8531;48.078;11.968;2023-02-22T01:24:57;5.60;99.90
16829;DHT22;8531;48.078;11.968;2023-02-22T01:27:23;5.60;99.90
16829;DHT22;8531;48.078;11.968;2023-02-22T01:29:48;5.50;99.90
16829;DHT22;8531;48.078;11.968;2023-02-22T01:32:14;5.40;99.90
16829;DHT22;8531;48.078;11.968;2023-02-22T01:34:40;5.50;99.90
16829;DHT22;8531;48.078;11.968;2023-02-22T01:37:06;5.50;99.90
16829;DHT22;8531;48.078;11.968;2023-02-22T01:39:32;5.50;99.90
16829;DHT22;8531;48.078;11.968;2023-02-22T01:41:58;5.60;99.90
16829;DHT22;8531;48.078;11.968;2023-02-22T01:46:56;5.50;99.90
16829;DHT22;8531;48.078;11.968;2023-02-22T01:49:24;5.50;99.90
16829;DHT22;8531;48.078;11.968;2023-02-22T01:51:53;5.50;99.90
16829;DHT22;8531;48.078;11.968;2023-02-22T01:54:25;5.50;99.90
16829;DHT22;8531;48.078;11.968;2023-02-22T01:57:17;5.50;99.90
16829;DHT22;8531;48.078;11.968;2023-02-22T01:59:47;5.40;99.90
16829;DHT22;8531;48.078;11.968;2023-02-22T02:02:14;5.30;99.90
16829;DHT22;8531;48.078;11.968;2023-02-22T02:04:40;5.30;99.90
16829;DHT22;8531;48.078;11.968;2023-02-22T02:07:08;5.30;99.90
16829;DHT22;8531;48.078;11.968;2023-02-22T02:12:25;5.30;99.90
16829;DHT22;8531;48.078;11.968;2023-02-22T02:14:52;5.30;99.90
16829;DHT22;8531;48.078;11.968;2023-02-22T02:17:20;5.40;99.90
16829;DHT22;8531;48.078;11.968;2023-02-22T02:19:53;5.50;99.90
16829;DHT22;8531;48.078;11.968;2023-02-22T02:33:34;5.40;99.90
16829;DHT22;8531;48.078;11.968;2023-02-22T02:36:17;5.30;99.90
16829;DHT22;8531;48.078;11.968;2023-02-22T02:38:56;5.20;99.90
16829;DHT22;8531;48.078;11.968;2023-02-22T02:41:37;5.10;99.90
16829;DHT22;8531;48.078;11.968;2023-02-22T02:44:27;5.10;99.90
16829;DHT22;8531;48.078;11.968;2023-02-22T02:46:56;5.10;99.90
16829;DHT22;8531;48.078;11.968;2023-02-22T02:52:10;5.00;99.90
16829;DHT22;8531;48.078;11.968;2023-02-22T02:54:38;4.90;99.90
16829;DHT22;8531;48.078;11.968;2023-02-22T02:57:04;4.80;99.90
16829;DHT22;8531;48.078;11.968;2023-02-22T02:59:33;4.80;99.90
16829;DHT22;8531;48.078;11.968;2023-02-22T03:02:21;4.80;99.90
16829;DHT22;8531;48.078;11.968;2023-02-22T03:05:11;4.70;99.90
16829;DHT22;8531;48.078;11.968;2023-02-22T03:13:25;4.80;99.90
16829;DHT22;8531;48.078;11.968;2023-02-22T03:16:16;4.70;99.90
16829;DHT22;8531;48.078;11.968;2023-02-22T03:19:08;4.70;99.90
16829;DHT22;8531;48.078;11.968;2023-02-22T03:26:48;4.70;99.90
16829;DHT22;8531;48.078;11.968;2023-02-22T03:29:17;4.70;99.90
16829;DHT22;8531;48.078;11.968;2023-02-22T03:31:50;4.70;99.90
16829;DHT22;8531;48.078;11.968;2023-02-22T03:34:24;4.60;99.90
16829;DHT22;8531;48.078;11.968;2023-02-22T03:36:58;4.50;99.90
16829;DHT22;8531;48.078;11.968;2023-02-22T03:39:25;4.50;99.90
16829;DHT22;8531;48.078;11.968;2023-02-22T03:41:58;4.50;99.90
16829;DHT22;8531;48.078;11.968;2023-02-22T03:44:29;4.40;99.90
16829;DHT22;8531;48.078;11.968;2023-02-22T03:46:56;4.40;99.90
16829;DHT22;8531;48.078;11.968;2023-02-22T03:49:56;4.40;99.90
16829;DHT22;8531;48.078;11.968;2023-02-22T03:52:25;4.40;99.90
16829;DHT22;8531;48.078;11.968;2023-02-22T03:54:51;4.40;99.90
16829;DHT22;8531;48.078;11.968;2023-02-22T03:58:07;4.40;99.90
16829;DHT22;8531;48.078;11.968;2023-02-22T04:00:16;4.40;99.90
16829;DHT22;8531;48.078;11.968;2023-02-22T04:02:42;4.40;99.90
16829;DHT22;8531;48.078;11.968;2023-02-22T04:05:08;4.40;99.90
16829;DHT22;8531;48.078;11.968;2023-02-22T04:07:34;4.40;99.90
16829;DHT22;8531;48.078;11.968;2023-02-22T04:10:00;4.40;99.90
16829;DHT22;8531;48.078;11.968;2023-02-22T04:12:27;4.50;99.90
16829;DHT22;8531;48.078;11.968;2023-02-22T04:14:53;4.50;99.90
16829;DHT22;8531;48.078;11.968;2023-02-22T04:17:18;4.50;99.90
16829;DHT22;8531;48.078;11.968;2023-02-22T04:19:44;4.40;99.90
16829;DHT22;8531;48.078;11.968;2023-02-22T04:22:10;4.50;99.90
16829;DHT22;8531;48.078;11.968;2023-02-22T04:24:36;4.50;99.90
16829;DHT22;8531;48.078;11.968;2023-02-22T04:27:02;4.50;99.90
16829;DHT22;8531;48.078;11.968;2023-02-22T04:29:28;4.50;99.90
16829;DHT22;8531;48.078;11.968;2023-02-22T04:31:54;4.40;99.90
16829;DHT22;8531;48.078;11.968;2023-02-22T04:34:20;4.50;99.90
16829;DHT22;8531;48.078;11.968;2023-02-22T04:36:46;4.50;99.90
16829;DHT22;8531;48.078;11.968;2023-02-22T04:39:12;4.40;99.90
16829;DHT22;8531;48.078;11.968;2023-02-22T04:41:37;4.40;99.90
16829;DHT22;8531;48.078;11.968;2023-02-22T04:44:03;4.40;99.90
16829;DHT22;8531;48.078;11.968;2023-02-22T04:46:29;4.30;99.90
16829;DHT22;8531;48.078;11.968;2023-02-22T04:48:56;4.30;99.90
16829;DHT22;8531;48.078;11.968;2023-02-22T04:51:22;4.40;99.90
16829;DHT22;8531;48.078;11.968;2023-02-22T04:53:48;4.50;99.90
16829;DHT22;8531;48.078;11.968;2023-02-22T04:56:16;4.50;99.90
16829;DHT22;8531;48.078;11.968;2023-02-22T04:58:42;4.30;99.90
16829;DHT22;8531;48.078;11.968;2023-02-22T05:01:08;4.30;99.90
16829;DHT22;8531;48.078;11.968;2023-02-22T05:03:36;4.30;99.90
16829;DHT22;8531;48.078;11.968;2023-02-22T05:06:02;4.30;99.90
16829;DHT22;8531;48.078;11.968;2023-02-22T05:08:28;4.40;99.90
16829;DHT22;8531;48.078;11.968;2023-02-22T05:10:54;4.40;99.90
16829;DHT22;8531;48.078;11.968;2023-02-22T05:13:20;4.30;99.90
16829;DHT22;8531;48.078;11.968;2023-02-22T05:15:46;4.30;99.90
16829;DHT22;8531;48.078;11.968;2023-02-22T05:18:13;4.20;99.90
16829;DHT22;8531;48.078;11.968;2023-02-22T05:20:39;4.30;99.90
16829;DHT22;8531;48.078;11.968;2023-02-22T05:23:04;4.30;99.90
16829;DHT22;8531;48.078;11.968;2023-02-22T05:25:31;4.20;99.90
16829;DHT22;8531;48.078;11.968;2023-02-22T05:28:02;4.20;99.90
16829;DHT22;8531;48.078;11.968;2023-02-22T05:30:31;4.10;99.90
16829;DHT22;8531;48.078;11.968;2023-02-22T05:32:58;4.10;99.90
16829;DHT22;8531;48.078;11.968;2023-02-22T05:35:25;4.10;99.90
16829;DHT22;8531;48.078;11.968;2023-02-22T05:37:52;4.10;99.90
16829;DHT22;8531;48.078;11.968;2023-02-22T05:40:23;4.10;99.90
16829;DHT22;8531;48.078;11.968;2023-02-22T05:42:50;4.10;99.90
16829;DHT22;8531;48.078;11.968;2023-02-22T05:45:18;4.10;99.90
16829;DHT22;8531;48.078;11.968;2023-02-22T05:47:45;4.00;99.90
16829;DHT22;8531;48.078;11.968;2023-02-22T05:50:11;3.90;99.90
16829;DHT22;8531;48.078;11.968;2023-02-22T05:52:37;3.90;99.90
16829;DHT22;8531;48.078;11.968;2023-02-22T05:55:07;4.00;99.90
16829;DHT22;8531;48.078;11.968;2023-02-22T05:57:33;4.00;99.90
16829;DHT22;8531;48.078;11.968;2023-02-22T05:59:59;4.00;99.90
16829;DHT22;8531;48.078;11.968;2023-02-22T06:02:25;4.00;99.90
16829;DHT22;8531;48.078;11.968;2023-02-22T06:04:51;4.00;99.90
16829;DHT22;8531;48.078;11.968;2023-02-22T06:07:16;4.00;99.90
16829;DHT22;8531;48.078;11.968;2023-02-22T06:09:42;4.10;99.90
16829;DHT22;8531;48.078;11.968;2023-02-22T06:12:08;4.10;99.90
16829;DHT22;8531;48.078;11.968;2023-02-22T06:14:35;4.20;99.90
16829;DHT22;8531;48.078;11.968;2023-02-22T06:17:01;4.30;99.90
16829;DHT22;8531;48.078;11.968;2023-02-22T06:19:27;4.20;99.90
16829;DHT22;8531;48.078;11.968;2023-02-22T06:21:54;4.20;99.90
16829;DHT22;8531;48.078;11.968;2023-02-22T06:24:21;4.10;99.90
16829;DHT22;8531;48.078;11.968;2023-02-22T06:26:54;4.00;99.90
16829;DHT22;8531;48.078;11.968;2023-02-22T06:29:20;4.10;99.90
16829;DHT22;8531;48.078;11.968;2023-02-22T06:31:45;4.00;99.90
16829;DHT22;8531;48.078;11.968;2023-02-22T06:34:11;4.00;99.90
16829;DHT22;8531;48.078;11.968;2023-02-22T06:36:37;4.10;99.90
16829;DHT22;8531;48.078;11.968;2023-02-22T06:39:02;4.20;99.90
16829;DHT22;8531;48.078;11.968;2023-02-22T06:41:28;4.20;99.90
16829;DHT22;8531;48.078;11.968;2023-02-22T06:43:54;4.20;99.90
16829;DHT22;8531;48.078;11.968;2023-02-22T06:46:19;4.30;99.90
16829;DHT22;8531;48.078;11.968;2023-02-22T06:48:46;4.40;99.90
16829;DHT22;8531;48.078;11.968;2023-02-22T06:51:11;4.30;99.90
16829;DHT22;8531;48.078;11.968;2023-02-22T06:53:37;4.40;99.90
16829;DHT22;8531;48.078;11.968;2023-02-22T06:56:03;4.50;99.90
16829;DHT22;8531;48.078;11.968;2023-02-22T06:58:29;4.60;99.90
16829;DHT22;8531;48.078;11.968;2023-02-22T07:00:54;4.60;99.90
16829;DHT22;8531;48.078;11.968;2023-02-22T07:03:20;4.70;99.90
16829;DHT22;8531;48.078;11.968;2023-02-22T07:05:46;4.60;99.90
16829;DHT22;8531;48.078;11.968;2023-02-22T07:08:12;4.70;99.90
16829;DHT22;8531;48.078;11.968;2023-02-22T07:10:38;4.70;99.90
16829;DHT22;8531;48.078;11.968;2023-02-22T07:13:06;4.80;99.90
16829;DHT22;8531;48.078;11.968;2023-02-22T07:15:33;4.80;99.90
16829;DHT22;8531;48.078;11.968;2023-02-22T07:17:59;4.80;99.90
16829;DHT22;8531;48.078;11.968;2023-02-22T07:20:27;5.00;99.90
16829;DHT22;8531;48.078;11.968;2023-02-22T07:22:53;5.00;99.90
16829;DHT22;8531;48.078;11.968;2023-02-22T07:25:20;5.10;99.90
16829;DHT22;8531;48.078;11.968;2023-02-22T07:27:47;5.10;99.90
16829;DHT22;8531;48.078;11.968;2023-02-22T07:30:23;5.10;99.90
16829;DHT22;8531;48.078;11.968;2023-02-22T07:32:51;5.10;99.90
16829;DHT22;8531;48.078;11.968;2023-02-22T07:35:23;5.10;99.90
16829;DHT22;8531;48.078;11.968;2023-02-22T07:37:49;5.10;99.90
16829;DHT22;8531;48.078;11.968;2023-02-22T07:40:16;5.10;99.90
16829;DHT22;8531;48.078;11.968;2023-02-22T07:42:58;5.10;99.90
16829;DHT22;8531;48.078;11.968;2023-02-22T07:45:26;5.20;99.90
16829;DHT22;8531;48.078;11.968;2023-02-22T07:47:52;5.20;99.90
16829;DHT22;8531;48.078;11.968;2023-02-22T07:50:19;5.20;99.90
16829;DHT22;8531;48.078;11.968;2023-02-22T07:52:50;5.20;99.90
16829;DHT22;8531;48.078;11.968;2023-02-22T07:55:19;5.30;99.90
16829;DHT22;8531;48.078;11.968;2023-02-22T07:57:45;5.40;99.90
16829;DHT22;8531;48.078;11.968;2023-02-22T08:00:13;5.50;99.90
16829;DHT22;8531;48.078;11.968;2023-02-22T08:02:40;5.60;99.90
16829;DHT22;8531;48.078;11.968;2023-02-22T08:05:07;5.80;99.90
16829;DHT22;8531;48.078;11.968;2023-02-22T08:07:32;5.90;99.90
16829;DHT22;8531;48.078;11.968;2023-02-22T08:09:58;6.00;99.90
16829;DHT22;8531;48.078;11.968;2023-02-22T08:12:24;6.00;99.90
16829;DHT22;8531;48.078;11.968;2023-02-22T08:14:49;6.00;99.90
16829;DHT22;8531;48.078;11.968;2023-02-22T08:17:15;6.10;99.90
16829;DHT22;8531;48.078;11.968;2023-02-22T08:19:41;6.10;99.90
16829;DHT22;8531;48.078;11.968;2023-02-22T08:22:06;6.10;99.90
16829;DHT22;8531;48.078;11.968;2023-02-22T08:24:32;6.10;99.90
16829;DHT22;8531;48.078;11.968;2023-02-22T08:26:57;6.20;99.90
16829;DHT22;8531;48.078;11.968;2023-02-22T08:29:23;6.30;99.90
16829;DHT22;8531;48.078;11.968;2023-02-22T08:31:52;6.40;99.90
16829;DHT22;8531;48.078;11.968;2023-02-22T08:34:18;6.50;99.90
16829;DHT22;8531;48.078;11.968;2023-02-22T08:36:44;6.60;99.90
16829;DHT22;8531;48.078;11.968;2023-02-22T08:39:10;6.60;99.90
16829;DHT22;8531;48.078;11.968;2023-02-22T08:41:36;6.60;99.90
16829;DHT22;8531;48.078;11.968;2023-02-22T08:44:03;6.70;99.90
16829;DHT22;8531;48.078;11.968;2023-02-22T08:46:28;6.80;99.90
16829;DHT22;8531;48.078;11.968;2023-02-22T08:48:54;6.90;99.90
16829;DHT22;8531;48.078;11.968;2023-02-22T08:51:20;7.00;99.90
16829;DHT22;8531;48.078;11.968;2023-02-22T08:53:46;7.20;99.90
16829;DHT22;8531;48.078;11.968;2023-02-22T08:56:11;7.30;99.90
16829;DHT22;8531;48.078;11.968;2023-02-22T08:58:37;7.30;99.90
16829;DHT22;8531;48.078;11.968;2023-02-22T09:01:03;7.30;99.90
16829;DHT22;8531;48.078;11.968;2023-02-22T09:03:28;7.50;99.90
16829;DHT22;8531;48.078;11.968;2023-02-22T09:05:54;7.50;99.90
16829;DHT22;8531;48.078;11.968;2023-02-22T09:08:20;7.60;99.90
16829;DHT22;8531;48.078;11.968;2023-02-22T09:10:46;7.70;99.90
16829;DHT22;8531;48.078;11.968;2023-02-22T09:13:11;7.80;99.90
16829;DHT22;8531;48.078;11.968;2023-02-22T09:15:38;7.90;99.90
16829;DHT22;8531;48.078;11.968;2023-02-22T09:18:06;8.20;99.90
16829;DHT22;8531;48.078;11.968;2023-02-22T09:20:33;8.20;99.90
16829;DHT22;8531;48.078;11.968;2023-02-22T09:23:00;8.50;99.90
16829;DHT22;8531;48.078;11.968;2023-02-22T09:25:28;8.50;99.90
16829;DHT22;8531;48.078;11.968;2023-02-22T09:27:55;8.60;99.90
16829;DHT22;8531;48.078;11.968;2023-02-22T09:30:25;8.80;99.90
16829;DHT22;8531;48.078;11.968;2023-02-22T09:32:56;8.90;99.90
16829;DHT22;8531;48.078;11.968;2023-02-22T09:35:22;9.10;99.90
16829;DHT22;8531;48.078;11.968;2023-02-22T09:37:58;9.30;99.90
16829;DHT22;8531;48.078;11.968;2023-02-22T09:40:32;9.40;99.90
16829;DHT22;8531;48.078;11.968;2023-02-22T09:49:02;9.80;99.90
16829;DHT22;8531;48.078;11.968;2023-02-22T09:51:46;9.90;99.90
16829;DHT22;8531;48.078;11.968;2023-02-22T09:54:24;10.00;99.90
16829;DHT22;8531;48.078;11.968;2023-02-22T09:56:55;10.00;99.90
16829;DHT22;8531;48.078;11.968;2023-02-22T09:59:28;10.10;99.90
16829;DHT22;8531;48.078;11.968;2023-02-22T10:04:51;10.30;99.90
16829;DHT22;8531;48.078;11.968;2023-02-22T10:07:27;10.30;99.90
16829;DHT22;8531;48.078;11.968;2023-02-22T10:09:56;10.40;99.90
16829;DHT22;8531;48.078;11.968;2023-02-22T10:12:58;10.60;99.90
16829;DHT22;8531;48.078;11.968;2023-02-22T10:23:46;11.10;99.90
16829;DHT22;8531;48.078;11.968;2023-02-22T10:26:19;11.20;99.90
16829;DHT22;8531;48.078;11.968;2023-02-22T10:31:36;11.60;99.90
16829;DHT22;8531;48.078;11.968;2023-02-22T10:34:13;11.60;99.90
16829;DHT22;8531;48.078;11.968;2023-02-22T10:36:38;11.70;99.90
16829;DHT22;8531;48.078;11.968;2023-02-22T10:39:30;11.70;99.90
16829;DHT22;8531;48.078;11.968;2023-02-22T10:42:00;11.70;99.90
16829;DHT22;8531;48.078;11.968;2023-02-22T10:44:31;11.70;99.90
16829;DHT22;8531;48.078;11.968;2023-02-22T10:46:59;11.80;99.90
16829;DHT22;8531;48.078;11.968;2023-02-22T10:49:33;12.00;99.90
16829;DHT22;8531;48.078;11.968;2023-02-22T10:52:00;12.30;99.90
16829;DHT22;8531;48.078;11.968;2023-02-22T10:54:40;12.40;99.90
16829;DHT22;8531;48.078;11.968;2023-02-22T10:57:07;12.30;99.90
16829;DHT22;8531;48.078;11.968;2023-02-22T10:59:39;12.40;99.90
16829;DHT22;8531;48.078;11.968;2023-02-22T11:04:52;12.60;99.90
16829;DHT22;8531;48.078;11.968;2023-02-22T11:12:30;12.80;99.90
16829;DHT22;8531;48.078;11.968;2023-02-22T11:15:18;13.00;99.90
16829;DHT22;8531;48.078;11.968;2023-02-22T11:17:50;13.10;99.90
16829;DHT22;8531;48.078;11.968;2023-02-22T11:20:21;13.10;99.90
16829;DHT22;8531;48.078;11.968;2023-02-22T11:22:52;13.10;99.90
16829;DHT22;8531;48.078;11.968;2023-02-22T11:25:35;13.30;99.90
16829;DHT22;8531;48.078;11.968;2023-02-22T11:28:17;13.20;99.90
16829;DHT22;8531;48.078;11.968;2023-02-22T11:30:49;13.50;99.90
16829;DHT22;8531;48.078;11.968;2023-02-22T11:36:00;13.70;99.90
16829;DHT22;8531;48.078;11.968;2023-02-22T11:38:33;13.70;99.90
16829;DHT22;8531;48.078;11.968;2023-02-22T11:41:17;13.60;99.90
16829;DHT22;8531;48.078;11.968;2023-02-22T11:43:48;13.70;99.90
16829;DHT22;8531;48.078;11.968;2023-02-22T11:46:22;13.80;99.90
16829;DHT22;8531;48.078;11.968;2023-02-22T11:54:59;14.10;99.90
16829;DHT22;8531;48.078;11.968;2023-02-22T12:19:47;14.60;99.90
16829;DHT22;8531;48.078;11.968;2023-02-22T12:22:20;14.50;99.90
16829;DHT22;8531;48.078;11.968;2023-02-22T12:25:26;14.60;99.90
16829;DHT22;8531;48.078;11.968;2023-02-22T12:28:15;14.60;99.90
16829;DHT22;8531;48.078;11.968;2023-02-22T12:30:45;14.70;99.90
16829;DHT22;8531;48.078;11.968;2023-02-22T12:33:18;14.60;99.90
16829;DHT22;8531;48.078;11.968;2023-02-22T12:35:54;14.50;99.90
16829;DHT22;8531;48.078;11.968;2023-02-22T12:38:36;14.50;99.90
16829;DHT22;8531;48.078;11.968;2023-02-22T12:43:49;14.80;99.90
16829;DHT22;8531;48.078;11.968;2023-02-22T12:46:18;14.90;99.90
16829;DHT22;8531;48.078;11.968;2023-02-22T12:54:36;14.90;99.90
16829;DHT22;8531;48.078;11.968;2023-02-22T12:57:14;14.70;99.90
16829;DHT22;8531;48.078;11.968;2023-02-22T12:59:58;14.70;99.90
16829;DHT22;8531;48.078;11.968;2023-02-22T13:02:40;14.80;99.90
16829;DHT22;8531;48.078;11.968;2023-02-22T13:05:14;14.70;99.90
16829;DHT22;8531;48.078;11.968;2023-02-22T13:08:01;14.70;99.90
16829;DHT22;8531;48.078;11.968;2023-02-22T13:10:55;14.80;99.90
16829;DHT22;8531;48.078;11.968;2023-02-22T13:15:53;15.00;99.90
16829;DHT22;8531;48.078;11.968;2023-02-22T13:18:30;14.90;99.90
16829;DHT22;8531;48.078;11.968;2023-02-22T13:29:19;14.50;99.90
16829;DHT22;8531;48.078;11.968;2023-02-22T13:32:10;14.40;99.90
16829;DHT22;8531;48.078;11.968;2023-02-22T13:54:02;14.30;99.90
16829;DHT22;8531;48.078;11.968;2023-02-22T13:56:30;14.30;99.90
16829;DHT22;8531;48.078;11.968;2023-02-22T13:58:58;14.40;99.90
16829;DHT22;8531;48.078;11.968;2023-02-22T14:01:44;14.40;99.90
16829;DHT22;8531;48.078;11.968;2023-02-22T14:07:04;14.50;99.90
16829;DHT22;8531;48.078;11.968;2023-02-22T14:09:57;14.40;99.90
16829;DHT22;8531;48.078;11.968;2023-02-22T14:17:48;14.50;99.90
16829;DHT22;8531;48.078;11.968;2023-02-22T14:22:50;14.60;99.90
16829;DHT22;8531;48.078;11.968;2023-02-22T14:27:57;14.60;99.90
16829;DHT22;8531;48.078;11.968;2023-02-22T14:30:26;14.60;99.90
16829;DHT22;8531;48.078;11.968;2023-02-22T14:32:52;14.70;99.90
16829;DHT22;8531;48.078;11.968;2023-02-22T14:35:19;14.80;99.90
16829;DHT22;8531;48.078;11.968;2023-02-22T14:37:55;14.90;99.90
16829;DHT22;8531;48.078;11.968;2023-02-22T14:40:28;15.20;99.90
16829;DHT22;8531;48.078;11.968;2023-02-22T14:43:02;15.20;99.90
16829;DHT22;8531;48.078;11.968;2023-02-22T14:45:33;15.10;99.90
16829;DHT22;8531;48.078;11.968;2023-02-22T14:50:51;15.00;99.90
16829;DHT22;8531;48.078;11.968;2023-02-22T14:58:56;15.00;99.90
16829;DHT22;8531;48.078;11.968;2023-02-22T15:01:32;14.90;99.90
16829;DHT22;8531;48.078;11.968;2023-02-22T15:04:20;14.90;99.90
16829;DHT22;8531;48.078;11.968;2023-02-22T15:06:47;14.90;99.90
16829;DHT22;8531;48.078;11.968;2023-02-22T15:09:25;14.90;99.90
16829;DHT22;8531;48.078;11.968;2023-02-22T15:12:12;14.90;99.90
16829;DHT22;8531;48.078;11.968;2023-02-22T15:14:42;14.80;99.90
16829;DHT22;8531;48.078;11.968;2023-02-22T15:17:20;14.70;99.90
16829;DHT22;8531;48.078;11.968;2023-02-22T15:19:47;14.70;99.90
16829;DHT22;8531;48.078;11.968;2023-02-22T15:25:00;14.70;99.90
16829;DHT22;8531;48.078;11.968;2023-02-22T15:27:27;14.80;99.90
16829;DHT22;8531;48.078;11.968;2023-02-22T15:30:00;14.80;99.90
16829;DHT22;8531;48.078;11.968;2023-02-22T15:32:39;14.90;99.90
16829;DHT22;8531;48.078;11.968;2023-02-22T15:35:16;14.80;99.90
16829;DHT22;8531;48.078;11.968;2023-02-22T15:37:43;14.80;99.90
16829;DHT22;8531;48.078;11.968;2023-02-22T15:40:17;14.70;99.90
16829;DHT22;8531;48.078;11.968;2023-02-22T15:42:48;14.60;99.90
16829;DHT22;8531;48.078;11.968;2023-02-22T15:45:16;14.60;99.90
16829;DHT22;8531;48.078;11.968;2023-02-22T15:47:44;14.60;99.90
16829;DHT22;8531;48.078;11.968;2023-02-22T15:50:19;14.60;99.90
16829;DHT22;8531;48.078;11.968;2023-02-22T15:55:36;14.50;99.90
16829;DHT22;8531;48.078;11.968;2023-02-22T15:58:09;14.50;99.90
16829;DHT22;8531;48.078;11.968;2023-02-22T16:00:43;14.50;99.90
16829;DHT22;8531;48.078;11.968;2023-02-22T16:03:20;14.50;99.90
16829;DHT22;8531;48.078;11.968;2023-02-22T16:05:55;14.40;99.90
16829;DHT22;8531;48.078;11.968;2023-02-22T16:08:24;14.30;99.90
16829;DHT22;8531;48.078;11.968;2023-02-22T16:13:31;14.20;99.90
16829;DHT22;8531;48.078;11.968;2023-02-22T16:15:59;14.20;99.90
16829;DHT22;8531;48.078;11.968;2023-02-22T16:21:13;14.10;99.90
16829;DHT22;8531;48.078;11.968;2023-02-22T16:23:51;14.00;99.90
16829;DHT22;8531;48.078;11.968;2023-02-22T16:26:29;13.90;99.90
16829;DHT22;8531;48.078;11.968;2023-02-22T16:29:03;13.70;99.90
16829;DHT22;8531;48.078;11.968;2023-02-22T16:31:35;13.60;99.90
16829;DHT22;8531;48.078;11.968;2023-02-22T16:34:03;13.40;99.90
16829;DHT22;8531;48.078;11.968;2023-02-22T16:36:39;13.30;99.90
16829;DHT22;8531;48.078;11.968;2023-02-22T16:39:07;13.20;99.90
16829;DHT22;8531;48.078;11.968;2023-02-22T16:41:33;13.00;99.90
16829;DHT22;8531;48.078;11.968;2023-02-22T16:43:59;12.90;99.90
16829;DHT22;8531;48.078;11.968;2023-02-22T16:46:25;12.80;99.90
16829;DHT22;8531;48.078;11.968;2023-02-22T16:48:50;12.60;99.90
16829;DHT22;8531;48.078;11.968;2023-02-22T16:51:24;12.60;99.90
16829;DHT22;8531;48.078;11.968;2023-02-22T16:53:54;12.60;99.90
16829;DHT22;8531;48.078;11.968;2023-02-22T16:56:27;12.60;99.90
16829;DHT22;8531;48.078;11.968;2023-02-22T16:58:53;12.40;99.90
16829;DHT22;8531;48.078;11.968;2023-02-22T17:01:19;12.30;99.90
16829;DHT22;8531;48.078;11.968;2023-02-22T17:03:48;12.20;99.90
16829;DHT22;8531;48.078;11.968;2023-02-22T17:06:15;12.00;99.90
16829;DHT22;8531;48.078;11.968;2023-02-22T17:08:41;12.00;99.90
16829;DHT22;8531;48.078;11.968;2023-02-22T17:11:10;11.90;99.90
16829;DHT22;8531;48.078;11.968;2023-02-22T17:13:36;11.80;99.90
16829;DHT22;8531;48.078;11.968;2023-02-22T17:16:05;11.70;99.90
16829;DHT22;8531;48.078;11.968;2023-02-22T17:18:31;11.70;99.90
16829;DHT22;8531;48.078;11.968;2023-02-22T17:20:59;11.60;99.90
16829;DHT22;8531;48.078;11.968;2023-02-22T17:23:24;11.50;99.90
16829;DHT22;8531;48.078;11.968;2023-02-22T17:25:59;11.50;99.90
16829;DHT22;8531;48.078;11.968;2023-02-22T17:28:27;11.40;99.90
16829;DHT22;8531;48.078;11.968;2023-02-22T17:30:54;11.40;99.90
16829;DHT22;8531;48.078;11.968;2023-02-22T17:33:25;11.30;99.90
16829;DHT22;8531;48.078;11.968;2023-02-22T17:35:53;11.20;99.90
16829;DHT22;8531;48.078;11.968;2023-02-22T17:38:19;11.20;99.90
16829;DHT22;8531;48.078;11.968;2023-02-22T17:40:46;11.10;99.90
16829;DHT22;8531;48.078;11.968;2023-02-22T17:43:16;11.00;99.90
16829;DHT22;8531;48.078;11.968;2023-02-22T17:45:44;10.90;99.90
16829;DHT22;8531;48.078;11.968;2023-02-22T17:48:11;10.90;99.90
16829;DHT22;8531;48.078;11.968;2023-02-22T17:50:39;10.80;99.90
16829;DHT22;8531;48.078;11.968;2023-02-22T17:53:05;10.80;99.90
16829;DHT22;8531;48.078;11.968;2023-02-22T17:55:31;10.80;99.90
16829;DHT22;8531;48.078;11.968;2023-02-22T17:57:59;10.80;99.90
16829;DHT22;8531;48.078;11.968;2023-02-22T18:00:28;10.80;99.90
16829;DHT22;8531;48.078;11.968;2023-02-22T18:02:59;10.70;99.90
16829;DHT22;8531;48.078;11.968;2023-02-22T18:05:25;10.60;99.90
16829;DHT22;8531;48.078;11.968;2023-02-22T18:07:51;10.60;99.90
16829;DHT22;8531;48.078;11.968;2023-02-22T18:10:18;10.60;99.90
16829;DHT22;8531;48.078;11.968;2023-02-22T18:12:46;10.60;99.90
16829;DHT22;8531;48.078;11.968;2023-02-22T18:15:15;10.60;99.90
16829;DHT22;8531;48.078;11.968;2023-02-22T18:17:45;10.60;99.90
16829;DHT22;8531;48.078;11.968;2023-02-22T18:20:12;10.50;99.90
16829;DHT22;8531;48.078;11.968;2023-02-22T18:22:42;10.40;99.90
16829;DHT22;8531;48.078;11.968;2023-02-22T18:25:09;10.40;99.90
16829;DHT22;8531;48.078;11.968;2023-02-22T18:27:35;10.30;99.90
16829;DHT22;8531;48.078;11.968;2023-02-22T18:30:02;10.30;99.90
16829;DHT22;8531;48.078;11.968;2023-02-22T18:32:27;10.20;99.90
16829;DHT22;8531;48.078;11.968;2023-02-22T18:34:57;10.10;99.90
16829;DHT22;8531;48.078;11.968;2023-02-22T18:37:23;10.10;99.90